createdAt,value
2019-01-23T00:00:40.867Z,5.13
2019-01-23T00:03:13.008Z,6.07
2019-01-23T00:05:45.196Z,4.73
2019-01-23T00:08:16.973Z,3.87
2019-01-23T00:10:49.225Z,4.37
2019-01-23T00:13:21.267Z,4.43
2019-01-23T00:15:53.888Z,4.50
2019-01-23T00:18:26.116Z,4.37
2019-01-23T00:20:58.156Z,4.47
2019-01-23T00:23:30.077Z,4.77
2019-01-23T00:29:14.080Z,6.07
2019-01-23T00:31:48.547Z,5.10
2019-01-23T00:34:21.155Z,6.20
2019-01-23T00:36:53.544Z,5.00
2019-01-23T00:39:25.462Z,5.73
2019-01-23T00:41:58.093Z,5.50
2019-01-23T00:44:30.240Z,5.23
2019-01-23T00:47:02.205Z,4.37
2019-01-23T00:49:34.150Z,5.97
2019-01-23T00:52:06.422Z,4.83
2019-01-23T00:54:38.770Z,4.97
2019-01-23T00:57:11.344Z,6.07
2019-01-23T00:59:43.463Z,5.70
2019-01-23T01:02:15.435Z,6.50
2019-01-23T01:04:47.661Z,7.13
2019-01-23T01:07:19.858Z,6.63
2019-01-23T01:09:52.273Z,5.97
2019-01-23T01:12:24.113Z,6.67
2019-01-23T01:14:56.233Z,6.97
2019-01-23T01:17:28.331Z,7.93
2019-01-23T01:20:00.656Z,7.47
2019-01-23T01:22:32.684Z,7.87
2019-01-23T01:25:05.516Z,7.57
2019-01-23T01:27:37.474Z,7.53
2019-01-23T01:30:17.744Z,7.83
2019-01-23T01:32:50.305Z,8.37
2019-01-23T01:35:22.193Z,9.67
2019-01-23T01:37:54.146Z,8.47
2019-01-23T01:40:26.347Z,9.53
2019-01-23T01:42:58.982Z,8.90
2019-01-23T01:45:31.395Z,8.77
2019-01-23T01:48:03.566Z,6.43
2019-01-23T01:50:35.772Z,7.60
2019-01-23T01:53:07.993Z,7.03
2019-01-23T01:55:40.064Z,5.03
2019-01-23T01:58:12.774Z,7.23
2019-01-23T02:00:46.485Z,6.17
2019-01-23T02:03:19.345Z,6.60
2019-01-23T02:05:51.694Z,5.90
2019-01-23T02:08:24.059Z,6.17
2019-01-23T02:10:56.366Z,7.03
2019-01-23T02:13:28.607Z,6.77
2019-01-23T02:16:01.436Z,6.43
2019-01-23T02:18:33.888Z,5.53
2019-01-23T02:21:06.326Z,6.20
2019-01-23T02:23:38.455Z,6.83
2019-01-23T02:26:11.589Z,6.50
2019-01-23T02:31:34.738Z,5.37
2019-01-23T02:34:07.658Z,5.10
2019-01-23T02:36:39.637Z,5.10
2019-01-23T02:39:11.960Z,4.13
2019-01-23T02:41:43.840Z,4.70
2019-01-23T02:44:15.955Z,5.30
2019-01-23T02:46:48.741Z,5.17
2019-01-23T02:49:20.847Z,5.50
2019-01-23T02:51:52.971Z,4.37
2019-01-23T02:54:25.034Z,5.87
2019-01-23T02:56:57.793Z,7.13
2019-01-23T02:59:30.048Z,6.23
2019-01-23T03:02:02.369Z,6.53
2019-01-23T03:04:34.635Z,6.20
2019-01-23T03:07:06.783Z,6.33
2019-01-23T03:09:38.727Z,6.57
2019-01-23T03:12:10.706Z,8.40
2019-01-23T03:14:43.455Z,6.47
2019-01-23T03:17:15.786Z,6.73
2019-01-23T03:19:48.089Z,6.37
2019-01-23T03:22:20.747Z,6.90
2019-01-23T03:24:52.998Z,7.23
2019-01-23T03:27:25.013Z,6.57
2019-01-23T03:29:57.074Z,7.73
2019-01-23T03:32:29.499Z,6.70
2019-01-23T03:35:02.106Z,7.33
2019-01-23T03:37:34.390Z,8.17
2019-01-23T03:40:09.046Z,6.53
2019-01-23T03:42:41.863Z,5.80
2019-01-23T03:45:15.693Z,6.17
2019-01-23T03:47:48.519Z,5.77
2019-01-23T03:50:21.332Z,5.97
2019-01-23T03:52:53.530Z,6.10
2019-01-23T03:55:25.556Z,5.90
2019-01-23T03:57:57.575Z,6.63
2019-01-23T04:00:30.055Z,5.93
2019-01-23T04:03:02.211Z,5.90
2019-01-23T04:05:34.205Z,5.60
2019-01-23T04:08:06.506Z,6.33
2019-01-23T04:10:39.280Z,6.73
2019-01-23T04:13:11.971Z,5.97
2019-01-23T04:15:45.732Z,6.97
2019-01-23T04:18:17.883Z,7.13
2019-01-23T04:20:50.454Z,6.97
2019-01-23T04:23:23.039Z,7.60
2019-01-23T04:25:55.100Z,7.63
2019-01-23T04:28:27.507Z,7.80
2019-01-23T04:30:59.797Z,9.80
2019-01-23T04:33:31.761Z,9.27
2019-01-23T04:36:03.747Z,8.73
2019-01-23T04:38:36.425Z,9.53
2019-01-23T04:41:08.426Z,8.13
2019-01-23T04:43:41.278Z,9.37
2019-01-23T04:46:13.850Z,10.60
2019-01-23T04:48:46.353Z,9.57
2019-01-23T04:51:19.649Z,12.47
2019-01-23T04:53:51.699Z,13.20
2019-01-23T04:56:23.871Z,10.37
2019-01-23T04:58:56.210Z,8.90
2019-01-23T05:01:28.430Z,9.27
2019-01-23T05:04:00.391Z,9.37
2019-01-23T05:06:32.850Z,8.83
2019-01-23T05:09:06.164Z,9.87
2019-01-23T05:11:38.554Z,9.97
2019-01-23T05:14:10.466Z,10.27
2019-01-23T05:16:42.497Z,7.20
2019-01-23T05:19:14.649Z,8.83
2019-01-23T05:21:47.066Z,8.93
2019-01-23T05:24:18.987Z,6.63
2019-01-23T05:26:50.909Z,6.47
2019-01-23T05:29:23.018Z,6.97
2019-01-23T05:31:55.444Z,7.73
2019-01-23T05:34:27.650Z,7.07
2019-01-23T05:37:00.566Z,6.43
2019-01-23T05:39:32.456Z,6.30
2019-01-23T05:42:04.242Z,5.43
2019-01-23T05:44:36.179Z,6.50
2019-01-23T05:47:08.043Z,7.80
2019-01-23T05:49:39.926Z,7.23
2019-01-23T05:52:12.324Z,7.50
2019-01-23T05:54:44.229Z,6.93
2019-01-23T05:57:16.148Z,7.57
2019-01-23T05:59:48.423Z,8.00
2019-01-23T06:02:21.033Z,8.17
2019-01-23T06:04:52.934Z,7.93
2019-01-23T06:07:24.800Z,8.27
2019-01-23T06:09:57.213Z,8.57
2019-01-23T06:12:29.002Z,7.90
2019-01-23T06:15:01.116Z,7.90
2019-01-23T06:17:32.964Z,7.63
2019-01-23T06:20:06.191Z,6.20
2019-01-23T06:22:38.100Z,7.07
2019-01-23T06:25:10.161Z,7.13
2019-01-23T06:27:42.120Z,6.43
2019-01-23T06:30:19.593Z,6.93
2019-01-23T06:32:51.891Z,6.80
2019-01-23T06:35:23.984Z,7.80
2019-01-23T06:37:55.878Z,8.50
2019-01-23T06:40:27.890Z,7.80
2019-01-23T06:43:00.277Z,8.03
2019-01-23T06:45:32.711Z,7.90
2019-01-23T06:48:04.804Z,7.67
2019-01-23T06:50:36.797Z,6.13
2019-01-23T06:53:13.909Z,7.13
2019-01-23T06:55:42.654Z,6.60
2019-01-23T06:58:14.566Z,6.03
2019-01-23T07:00:46.582Z,6.57
2019-01-23T07:03:18.637Z,6.53
2019-01-23T07:05:50.494Z,6.80
2019-01-23T07:08:22.723Z,9.77
2019-01-23T07:10:55.580Z,7.83
2019-01-23T07:13:28.739Z,7.53
2019-01-23T07:16:00.748Z,7.43
2019-01-23T07:18:32.882Z,7.60
2019-01-23T07:21:05.008Z,7.73
2019-01-23T07:23:36.913Z,7.77
2019-01-23T07:26:08.821Z,7.97
2019-01-23T07:28:40.686Z,8.57
2019-01-23T07:31:13.109Z,9.67
2019-01-23T07:33:45.143Z,9.70
2019-01-23T07:36:17.231Z,9.73
2019-01-23T07:38:50.566Z,10.73
2019-01-23T07:41:22.471Z,10.63
2019-01-23T07:43:54.357Z,7.73
2019-01-23T07:46:26.313Z,8.30
2019-01-23T07:48:58.352Z,8.03
2019-01-23T07:51:30.244Z,8.00
2019-01-23T07:54:02.307Z,8.03
2019-01-23T07:56:34.204Z,8.33
2019-01-23T07:59:06.281Z,8.00
2019-01-23T08:01:38.197Z,8.17
2019-01-23T08:04:10.061Z,7.70
2019-01-23T08:06:42.021Z,8.00
2019-01-23T08:09:13.887Z,7.37
2019-01-23T08:11:45.831Z,7.73
2019-01-23T08:14:17.729Z,8.60
2019-01-23T08:16:49.611Z,7.73
2019-01-23T08:19:21.570Z,7.27
2019-01-23T08:21:53.853Z,7.70
2019-01-23T08:24:25.681Z,8.63
2019-01-23T08:26:57.553Z,8.60
2019-01-23T08:29:29.438Z,8.23
2019-01-23T08:32:01.846Z,8.20
2019-01-23T08:34:34.005Z,8.97
2019-01-23T08:37:06.355Z,8.07
2019-01-23T08:39:38.237Z,7.13
2019-01-23T08:42:10.089Z,8.40
2019-01-23T08:44:42.058Z,7.50
2019-01-23T08:47:13.895Z,9.97
2019-01-23T08:49:45.745Z,12.70
2019-01-23T08:52:17.701Z,9.30
2019-01-23T08:54:49.754Z,8.87
2019-01-23T08:57:21.776Z,9.57
2019-01-23T08:59:53.785Z,9.00
2019-01-23T09:02:25.633Z,8.60
2019-01-23T09:04:57.532Z,8.20
2019-01-23T09:07:29.562Z,7.47
2019-01-23T09:10:01.485Z,8.17
2019-01-23T09:12:33.358Z,7.40
2019-01-23T09:15:06.413Z,7.83
2019-01-23T09:17:38.440Z,8.03
2019-01-23T09:20:12.966Z,6.70
2019-01-23T09:22:44.935Z,6.67
2019-01-23T09:25:18.804Z,7.17
2019-01-23T09:27:50.902Z,6.03
2019-01-23T09:30:29.065Z,5.87
2019-01-23T09:33:16.252Z,6.47
2019-01-23T09:36:07.081Z,6.60
2019-01-23T09:38:56.570Z,5.97
2019-01-23T09:41:56.860Z,6.80
2019-01-23T09:44:34.048Z,7.10
2019-01-23T09:47:25.541Z,6.50
2019-01-23T09:50:06.033Z,7.77
2019-01-23T09:52:49.337Z,6.97
2019-01-23T09:55:21.198Z,8.07
2019-01-23T09:57:53.801Z,7.63
2019-01-23T10:00:31.656Z,7.57
2019-01-23T10:03:01.877Z,7.30
2019-01-23T10:05:33.945Z,7.60
2019-01-23T10:08:05.845Z,7.60
2019-01-23T10:10:37.802Z,7.90
2019-01-23T10:13:09.742Z,8.27
2019-01-23T10:15:44.567Z,8.00
2019-01-23T10:18:16.549Z,9.27
2019-01-23T10:20:49.011Z,8.57
2019-01-23T10:23:20.880Z,8.77
2019-01-23T10:25:52.881Z,8.80
2019-01-23T10:28:24.702Z,8.57
2019-01-23T10:30:56.664Z,8.70
2019-01-23T10:33:28.632Z,9.23
2019-01-23T10:36:00.600Z,8.60
2019-01-23T10:38:32.447Z,9.03
2019-01-23T10:41:04.326Z,11.97
2019-01-23T10:43:36.388Z,10.53
2019-01-23T10:46:08.385Z,11.50
2019-01-23T10:48:40.774Z,12.00
2019-01-23T10:51:12.648Z,12.93
2019-01-23T10:53:44.557Z,12.90
2019-01-23T10:56:16.715Z,13.07
2019-01-23T10:58:48.570Z,13.20
2019-01-23T11:01:20.613Z,13.50
2019-01-23T11:03:52.530Z,13.43
2019-01-23T11:06:24.917Z,14.40
2019-01-23T11:08:56.857Z,13.90
2019-01-23T11:11:28.996Z,13.27
2019-01-23T11:14:00.854Z,15.93
2019-01-23T11:16:32.849Z,16.23
2019-01-23T11:19:04.829Z,11.23
2019-01-23T11:21:36.711Z,8.40
2019-01-23T11:24:08.862Z,9.93
2019-01-23T11:26:40.825Z,12.27
2019-01-23T11:29:13.005Z,13.53
2019-01-23T11:31:45.039Z,11.93
2019-01-23T11:34:16.876Z,11.70
2019-01-23T11:36:48.858Z,9.57
2019-01-23T11:39:21.908Z,10.47
2019-01-23T11:41:54.318Z,11.60
2019-01-23T11:44:26.409Z,11.10
2019-01-23T11:46:58.325Z,13.40
2019-01-23T11:49:30.388Z,13.40
2019-01-23T11:52:02.349Z,12.70
2019-01-23T11:54:34.228Z,12.37
2019-01-23T11:57:06.526Z,13.30
2019-01-23T11:59:38.442Z,10.70
2019-01-23T12:02:10.978Z,12.80
2019-01-23T12:04:43.969Z,14.17
2019-01-23T12:07:15.954Z,15.30
2019-01-23T12:09:47.912Z,14.17
2019-01-23T12:12:20.530Z,14.73
2019-01-23T12:14:52.503Z,17.27
2019-01-23T12:17:24.360Z,14.60
2019-01-23T12:19:56.655Z,18.17
2019-01-23T12:22:28.722Z,16.07
2019-01-23T12:25:00.669Z,22.00
2019-01-23T12:27:32.625Z,19.67
2019-01-23T12:30:06.012Z,18.30
2019-01-23T12:32:38.216Z,17.70
2019-01-23T12:35:14.714Z,19.50
2019-01-23T12:37:46.995Z,19.97
2019-01-23T12:40:19.873Z,22.77
2019-01-23T12:42:52.309Z,19.40
2019-01-23T12:45:27.818Z,20.00
2019-01-23T12:47:59.893Z,20.40
2019-01-23T12:50:34.363Z,20.77
2019-01-23T12:53:07.375Z,17.37
2019-01-23T12:55:44.025Z,14.63
2019-01-23T12:58:16.093Z,13.77
2019-01-23T13:00:48.255Z,13.70
2019-01-23T13:03:20.730Z,14.50
2019-01-23T13:05:52.773Z,13.80
2019-01-23T13:08:25.147Z,15.50
2019-01-23T13:10:57.152Z,16.20
2019-01-23T13:13:29.089Z,17.30
2019-01-23T13:16:02.799Z,16.90
2019-01-23T13:18:35.156Z,16.83
2019-01-23T13:21:07.345Z,17.33
2019-01-23T13:23:39.342Z,17.17
2019-01-23T13:26:11.386Z,17.43
2019-01-23T13:28:43.383Z,18.27
2019-01-23T13:31:15.318Z,19.67
2019-01-23T13:33:47.595Z,19.83
2019-01-23T13:36:21.446Z,31.07
2019-01-23T13:38:56.409Z,22.67
2019-01-23T13:41:30.098Z,22.83
2019-01-23T13:44:03.647Z,22.90
2019-01-23T13:46:37.698Z,20.27
2019-01-23T13:49:11.661Z,19.80
2019-01-23T13:51:45.163Z,21.37
2019-01-23T13:54:19.392Z,19.93
2019-01-23T13:56:53.061Z,21.30
2019-01-23T13:59:26.733Z,21.07
2019-01-23T14:02:00.289Z,20.90
2019-01-23T14:04:34.163Z,22.33
2019-01-23T14:07:08.041Z,21.47
2019-01-23T14:09:42.055Z,22.00
2019-01-23T14:12:16.264Z,20.70
2019-01-23T14:14:49.783Z,21.40
2019-01-23T14:17:23.348Z,21.50
2019-01-23T14:19:56.817Z,21.93
2019-01-23T14:22:30.781Z,23.10
2019-01-23T14:25:04.546Z,22.50
2019-01-23T14:27:38.866Z,21.83
2019-01-23T14:30:27.083Z,24.17
2019-01-23T14:33:03.559Z,23.80
2019-01-23T14:35:40.968Z,22.73
2019-01-23T14:38:20.443Z,22.67
2019-01-23T14:40:58.133Z,22.97
2019-01-23T14:43:35.368Z,24.20
2019-01-23T14:46:10.754Z,23.33
2019-01-23T14:48:44.984Z,23.87
2019-01-23T14:51:18.781Z,25.37
2019-01-23T14:53:52.352Z,24.90
2019-01-23T14:56:26.104Z,25.57
2019-01-23T14:58:58.305Z,26.37
2019-01-23T15:01:30.655Z,26.20
2019-01-23T15:04:02.886Z,27.07
2019-01-23T15:06:37.009Z,26.57
2019-01-23T15:09:12.170Z,29.63
2019-01-23T15:11:44.782Z,27.33
2019-01-23T15:14:17.744Z,26.00
2019-01-23T15:16:50.460Z,29.12
2019-01-23T15:19:22.581Z,29.12
2019-01-23T15:21:54.808Z,29.85
2019-01-23T15:24:27.691Z,33.08
2019-01-23T15:26:59.767Z,32.60
2019-01-23T15:29:31.902Z,35.52
2019-01-23T15:32:04.663Z,35.60
2019-01-23T15:34:36.904Z,39.15
2019-01-23T15:37:08.947Z,34.50
2019-01-23T15:39:44.462Z,38.40
2019-01-23T15:42:17.814Z,37.43
2019-01-23T15:44:54.921Z,33.48
2019-01-23T15:47:27.909Z,33.75
2019-01-23T15:50:00.246Z,34.15
2019-01-23T15:52:32.385Z,30.77
2019-01-23T15:55:10.727Z,28.30
2019-01-23T15:57:43.442Z,35.50
2019-01-23T16:00:19.227Z,34.03
2019-01-23T16:02:51.221Z,32.05
2019-01-23T16:05:23.426Z,33.90
2019-01-23T16:07:55.742Z,35.65
2019-01-23T16:10:29.616Z,26.97
2019-01-23T16:13:03.056Z,26.82
2019-01-23T16:15:36.123Z,26.07
2019-01-23T16:18:11.566Z,26.90
2019-01-23T16:20:44.734Z,24.10
2019-01-23T16:23:19.064Z,22.85
2019-01-23T16:25:56.093Z,25.82
2019-01-23T16:28:28.328Z,16.48
2019-01-23T16:31:01.279Z,13.13
2019-01-23T16:33:33.433Z,12.07
2019-01-23T16:36:07.005Z,12.88
2019-01-23T16:38:39.273Z,13.30
2019-01-23T16:41:11.738Z,11.20
2019-01-23T16:43:46.432Z,9.43
2019-01-23T16:46:19.013Z,8.90
2019-01-23T16:48:52.142Z,6.65
2019-01-23T16:51:24.519Z,11.80
2019-01-23T16:53:56.972Z,12.25
2019-01-23T16:56:29.257Z,12.30
2019-01-23T16:59:01.770Z,12.98
2019-01-23T17:01:34.050Z,17.98
2019-01-23T17:04:06.671Z,17.67
2019-01-23T17:06:40.006Z,15.88
2019-01-23T17:09:12.260Z,17.95
2019-01-23T17:11:44.190Z,15.58
2019-01-23T17:14:16.978Z,15.85
2019-01-23T17:16:49.318Z,16.75
2019-01-23T17:19:21.320Z,15.38
2019-01-23T17:21:54.086Z,14.93
2019-01-23T17:24:26.305Z,16.45
2019-01-23T17:26:59.086Z,14.28
2019-01-23T17:29:31.758Z,14.07
2019-01-23T17:32:04.583Z,12.00
2019-01-23T17:34:36.994Z,14.38
2019-01-23T17:37:11.321Z,12.43
2019-01-23T17:39:43.969Z,10.55
2019-01-23T17:42:16.533Z,11.48
2019-01-23T17:44:48.533Z,11.73
2019-01-23T17:47:20.845Z,9.35
2019-01-23T17:49:53.829Z,8.80
2019-01-23T17:52:25.722Z,10.50
2019-01-23T17:54:57.991Z,8.93
2019-01-23T17:57:31.233Z,10.23
2019-01-23T18:00:04.641Z,8.80
2019-01-23T18:02:36.850Z,9.30
2019-01-23T18:05:11.181Z,9.88
2019-01-23T18:07:44.058Z,8.88
2019-01-23T18:10:17.486Z,9.33
2019-01-23T18:12:49.925Z,9.30
2019-01-23T18:15:27.614Z,9.18
2019-01-23T18:18:00.355Z,8.60
2019-01-23T18:20:32.747Z,11.33
2019-01-23T18:23:05.337Z,9.28
2019-01-23T18:25:38.728Z,9.40
2019-01-23T18:28:14.095Z,12.15
2019-01-23T18:30:58.149Z,10.13
2019-01-23T18:33:38.310Z,10.28
2019-01-23T18:36:19.477Z,11.63
2019-01-23T18:39:04.680Z,12.63
2019-01-23T18:42:00.964Z,12.10
2019-01-23T18:44:41.286Z,11.05
2019-01-23T18:47:35.638Z,11.05
2019-01-23T18:50:32.650Z,10.80
2019-01-23T18:53:04.695Z,10.80
2019-01-23T18:56:07.243Z,13.62
2019-01-23T18:58:39.155Z,12.03
2019-01-23T19:01:10.908Z,10.48
2019-01-23T19:03:42.877Z,15.20
2019-01-23T19:06:15.155Z,12.90
2019-01-23T19:11:58.910Z,11.88
2019-01-23T19:14:32.841Z,16.80
2019-01-23T19:17:05.692Z,12.93
2019-01-23T19:19:37.541Z,19.45
2019-01-23T19:22:09.491Z,12.23
2019-01-23T19:24:42.447Z,19.45
2019-01-23T19:27:14.495Z,13.25
2019-01-23T19:29:46.854Z,13.80
2019-01-23T19:32:18.698Z,12.10
2019-01-23T19:34:50.940Z,14.00
2019-01-23T19:37:22.635Z,15.45
2019-01-23T19:39:54.624Z,12.90
2019-01-23T19:42:26.729Z,13.00
2019-01-23T19:44:58.902Z,12.70
2019-01-23T19:47:32.267Z,13.65
2019-01-23T19:50:04.118Z,12.33
2019-01-23T19:52:36.294Z,12.20
2019-01-23T19:55:11.636Z,12.50
2019-01-23T20:01:16.018Z,11.43
2019-01-23T20:03:48.327Z,14.33
2019-01-23T20:06:20.007Z,9.93
2019-01-23T20:08:51.665Z,12.25
2019-01-23T20:11:24.217Z,12.78
2019-01-23T20:13:56.216Z,10.43
2019-01-23T20:16:31.042Z,9.60
2019-01-23T20:19:05.976Z,10.72
2019-01-23T20:21:39.529Z,10.25
2019-01-23T20:24:12.636Z,12.18
2019-01-23T20:26:45.739Z,10.85
2019-01-23T20:29:17.553Z,11.45
2019-01-23T20:31:49.352Z,12.60
2019-01-23T20:34:21.427Z,11.88
2019-01-23T20:36:53.490Z,10.32
2019-01-23T20:39:25.949Z,12.03
2019-01-23T20:42:01.184Z,12.18
2019-01-23T20:44:35.427Z,13.35
2019-01-23T20:47:08.875Z,14.30
2019-01-23T20:49:41.347Z,21.30
2019-01-23T20:52:13.455Z,12.80
2019-01-23T20:54:45.163Z,11.18
2019-01-23T20:57:17.021Z,13.53
2019-01-23T20:59:48.892Z,11.60
2019-01-23T21:02:21.308Z,10.72
2019-01-23T21:04:53.235Z,10.53
2019-01-23T21:07:25.241Z,11.60
2019-01-23T21:09:57.043Z,12.23
2019-01-23T21:12:29.056Z,9.63
2019-01-23T21:15:01.487Z,11.28
2019-01-23T21:17:33.338Z,13.35
2019-01-23T21:20:05.994Z,10.65
2019-01-23T21:22:37.948Z,13.68
2019-01-23T21:25:11.705Z,13.78
2019-01-23T21:27:43.795Z,13.43
2019-01-23T21:30:29.214Z,11.68
2019-01-23T21:33:01.425Z,13.65
2019-01-23T21:35:35.936Z,13.30
2019-01-23T21:38:08.898Z,15.20
2019-01-23T21:40:44.184Z,13.95
2019-01-23T21:43:17.263Z,13.62
2019-01-23T21:45:49.305Z,12.82
2019-01-23T21:48:22.175Z,13.55
2019-01-23T21:50:53.922Z,13.32
2019-01-23T21:53:25.765Z,14.20
2019-01-23T21:55:59.326Z,13.90
2019-01-23T21:58:31.229Z,14.58
2019-01-23T22:01:03.227Z,13.83
2019-01-23T22:03:35.323Z,13.75
2019-01-23T22:06:08.817Z,13.90
2019-01-23T22:08:40.710Z,13.55
2019-01-23T22:11:15.286Z,14.45
2019-01-23T22:13:47.104Z,13.40
2019-01-23T22:16:19.431Z,16.05
2019-01-23T22:18:51.197Z,17.23
2019-01-23T22:21:22.853Z,13.32
2019-01-23T22:23:54.869Z,15.78
2019-01-23T22:26:26.732Z,15.63
2019-01-23T22:28:58.400Z,14.25
2019-01-23T22:31:30.544Z,16.10
2019-01-23T22:34:03.500Z,15.72
2019-01-23T22:36:35.915Z,13.75
2019-01-23T22:39:08.916Z,15.37
2019-01-23T22:41:41.729Z,14.68
2019-01-23T22:44:13.473Z,14.30
2019-01-23T22:46:45.375Z,15.70
2019-01-23T22:49:17.021Z,18.23
2019-01-23T22:51:49.442Z,16.80
2019-01-23T22:54:21.769Z,17.43
2019-01-23T22:56:54.573Z,16.35
2019-01-23T22:59:26.868Z,17.67
2019-01-23T23:01:59.213Z,18.48
2019-01-23T23:04:32.235Z,17.75
2019-01-23T23:07:04.584Z,18.07
2019-01-23T23:09:37.903Z,19.03
2019-01-23T23:12:09.704Z,19.17
2019-01-23T23:14:41.424Z,20.50
2019-01-23T23:17:13.189Z,20.17
2019-01-23T23:19:45.840Z,18.33
2019-01-23T23:22:17.914Z,21.23
2019-01-23T23:24:50.394Z,26.13
2019-01-23T23:27:22.384Z,23.50
2019-01-23T23:29:54.767Z,22.50
2019-01-23T23:32:28.073Z,24.47
2019-01-23T23:35:00.416Z,21.27
2019-01-23T23:37:32.494Z,22.27
2019-01-23T23:40:04.502Z,20.93
2019-01-23T23:42:37.308Z,23.40
2019-01-23T23:45:11.918Z,23.27
2019-01-23T23:47:43.687Z,21.53
2019-01-23T23:50:16.831Z,21.30
2019-01-23T23:52:48.595Z,22.27
2019-01-23T23:55:20.785Z,23.87
2019-01-23T23:57:52.753Z,24.00
